Aviation Digital Data Service (ADDS)

Output produced by METARs form (1740 UTC 16 June 2019)
found at http://www.aviationweather.gov/metar/data/
 
Forecast for: FBSK (SIR SERETSE KHAM, BW)
Text: TAF FBSK 161500Z 1618/1724 25005KT CAVOK
Forecast period: 1800 UTC 16 June 2019 to 0000 UTC 18 June 2019
Forecast type: FROM: standard forecast or significant change
Winds: from the WSW (250 degrees) at 6 MPH (5 knots; 2.6 m/s)
Visibility: 6 or more miles 10+ km)
Ceiling: unknown
Clouds: missing
Weather: NSW  (no significant weather)